Pemberton, MN (56078)

07:18 PM CDT die 31o October, anno 2014 (GMT -0500)
Blue Valley Sod | Change Station
CLOSE
Current Station
Personal Weather Stations
Location: Mapleton, MN
Elevation: 1014 ft
Nearby Weather Stations

Elev 1014 ft 43.94 °N, 93.83 °W | Updated 1 minute ago

Serena
Serena
28.6 °F
Feels Like 29 °F
N
0.0
Ventus Variabilis Ventus from Inter Aquilonem et Eurum
Gusts 0.0 mph

Hodie
High -- | Low -- °F
--% Chance of Precip.
Yesterday
High -- | Low -- °F
Precip. -- in
7:50 AM 6:06 PM
First Quarter, 60% visible
Pressio 30.49 in
Visibilitas 10.0 milia passuum
Clouds Serena
Frigus Venti 29 °F
Frigus in quo Ros apparet 16 °F
Umor 62%
Rainfall 0.00 in
Snow Depth Not available.
UV 0 out of 12
Pollen .10 out of 12
Air Quality Not available.
Flu Activity Not available.
METAR KACQ 312354Z AUTO 00000KT 10SM CLR M01/M10 A3049 RMK AO2

More Conditions Fewer Conditions

Pressio 30.49 in
Visibilitas 10.0 milia passuum
Clouds Serena
Frigus Venti 29 °F
Frigus in quo Ros apparet 16 °F
Umor 62%
Rainfall 0.00 in
Snow Depth Not available.
UV 0 out of 12
Pollen .10 out of 12
Air Quality Not available.
Flu Activity Not available.
METAR KACQ 312354Z AUTO 00000KT 10SM CLR M01/M10 A3049 RMK AO2

More Conditions Fewer Conditions

10-Day Weather Forecast

Almanac

Astronomy

Oct. 31, 2014 Rise Set
Actual Time
Civil Twilight
Nautical Twilight
Astronomical Twilight
Moon
Length Of Visible Light
Length of Day
Tomorrow will be .
, % of the Moon is Illuminated

Today's Extremes

State Highs State Lows

Community

WunderPhotos

Upload Photos

1,766,788 photos uploaded!

WunderBlogs® & News

Nearby

Air Quality

  Air Quality AQ Index Pollutant
Not available.

Snow Depth

Station Depth Elevation

Earthquake Activity

City Distance Mag. Time & Date
Minimum magnitude displayed is 2.5.

Coastal Water Temperatures

Locus Calor

Nearby Weather Stations